Time;durP1;ratioP1;P1;durP2;ratioP2;P2;SDS_P1;SDS_P2;PMS_P1;PMS_P2;Temp;Humidity;BMP_temperature;BMP_pressure;BME280_temperature;BME280_humidity;BME280_pressure;Samples;Min_cycle;Max_cycle;Signal;HPM_P1;HPM_P2
2021/10/05 00:01:28;;;;;;;6.70;1.50;;;;;;;10.74;82.94;101219.53;5053749;28;20029;-36
2021/10/05 00:03:54;;;;;;;5.65;1.80;;;;;;;10.58;82.79;101201.97;5053563;28;20029;-36
2021/10/05 00:06:19;;;;;;;4.20;1.63;;;;;;;10.75;82.89;101215.75;5053724;28;20031;-36
2021/10/05 00:08:44;;;;;;;3.67;1.80;;;;;;;10.68;83.05;101217.69;5053386;28;20063;-36
2021/10/05 00:11:09;;;;;;;6.80;1.50;;;;;;;10.58;82.89;101191.97;5053378;28;20017;-36
2021/10/05 00:13:36;;;;;;;4.13;1.70;;;;;;;10.65;82.93;101212.75;5053281;28;20025;-36
2021/10/05 00:16:02;;;;;;;3.20;1.40;;;;;;;10.56;82.97;101199.50;5053741;28;20100;-36
2021/10/05 00:18:27;;;;;;;4.05;1.30;;;;;;;10.63;83.50;101194.00;5053221;28;20090;-36
2021/10/05 00:20:52;;;;;;;9.90;1.63;;;;;;;10.64;83.11;101208.34;5053781;28;20048;-36
2021/10/05 00:23:18;;;;;;;8.00;1.50;;;;;;;10.68;83.14;101214.97;5053745;28;20021;-36
2021/10/05 00:25:43;;;;;;;5.60;2.13;;;;;;;10.62;83.15;101200.47;5053947;28;20114;-36
2021/10/05 00:28:08;;;;;;;5.17;1.30;;;;;;;10.61;83.27;101208.81;5053599;28;20032;-36
2021/10/05 00:30:34;;;;;;;4.83;1.50;;;;;;;10.63;83.37;101207.53;5053071;28;20377;-36
2021/10/05 00:32:59;;;;;;;5.15;2.03;;;;;;;10.65;83.16;101202.75;5053155;28;20017;-36
2021/10/05 00:35:24;;;;;;;5.07;1.73;;;;;;;10.66;83.37;101188.16;5053288;28;20049;-36
2021/10/05 00:37:50;;;;;;;6.93;1.50;;;;;;;10.66;83.45;101190.88;5053299;28;20021;-36
2021/10/05 00:40:15;;;;;;;6.67;1.37;;;;;;;10.64;83.39;101189.41;5052699;28;20021;-36
2021/10/05 00:42:40;;;;;;;3.67;1.70;;;;;;;10.59;83.42;101187.41;5053459;28;20032;-36
2021/10/05 00:45:07;;;;;;;4.20;1.37;;;;;;;10.58;83.48;101181.16;5052899;28;20017;-36
2021/10/05 00:47:32;;;;;;;;;;;;;;;10.67;82.71;101170.88;5052231;28;20025;-36
2021/10/05 00:49:57;;;;;;;5.53;1.40;;;;;;;10.54;83.84;101163.75;5056914;28;20248;-36
2021/10/05 00:52:23;;;;;;;3.50;1.03;;;;;;;10.46;83.87;101161.31;5057059;28;20028;-36
2021/10/05 00:54:48;;;;;;;4.33;1.20;;;;;;;10.45;83.88;101148.84;5057441;28;20215;-36
2021/10/05 00:57:14;;;;;;;5.10;1.58;;;;;;;10.46;83.48;101155.91;5057355;28;20336;-36
2021/10/05 00:59:39;;;;;;;4.35;1.33;;;;;;;10.47;83.89;101160.25;5057297;28;20173;-36
2021/10/05 01:02:08;;;;;;;4.28;1.35;;;;;;;10.45;84.08;101156.16;5056446;28;20024;-36
2021/10/05 01:04:34;;;;;;;4.50;1.38;;;;;;;10.39;83.92;101138.09;5056654;28;20021;-36
2021/10/05 01:07:05;;;;;;;2.70;1.30;;;;;;;10.45;84.06;101143.44;5057301;28;20139;-36
2021/10/05 01:09:31;;;;;;;4.93;1.13;;;;;;;10.52;83.87;101137.97;5057124;28;20074;-36
2021/10/05 01:11:57;;;;;;;3.03;1.20;;;;;;;10.45;83.91;101132.63;5057361;28;20342;-36
2021/10/05 01:14:22;;;;;;;6.00;1.33;;;;;;;10.32;83.83;101119.22;5056575;28;20104;-36
2021/10/05 01:16:50;;;;;;;4.10;1.15;;;;;;;10.44;84.46;101124.72;5056966;28;20113;-36
2021/10/05 01:19:15;;;;;;;4.13;1.30;;;;;;;10.37;83.72;101124.78;5056440;28;20036;-36
2021/10/05 01:21:41;;;;;;;5.07;1.55;;;;;;;10.26;84.44;101109.31;5056952;28;20037;-36
2021/10/05 01:24:12;;;;;;;5.20;1.50;;;;;;;10.36;84.61;101115.03;5056285;28;20109;-36
2021/10/05 01:26:38;;;;;;;4.15;1.23;;;;;;;10.30;84.52;101124.03;5056620;28;20107;-36
2021/10/05 01:29:05;;;;;;;3.97;1.17;;;;;;;10.27;84.84;101114.50;5055945;28;20029;-36
2021/10/05 01:31:31;;;;;;;3.88;1.50;;;;;;;10.23;85.00;101112.44;5056107;28;20100;-36
2021/10/05 01:33:58;;;;;;;6.13;1.75;;;;;;;10.25;84.70;101110.38;5056448;28;20090;-36
2021/10/05 01:36:24;;;;;;;5.88;1.77;;;;;;;10.20;85.24;101093.94;5056212;28;20027;-36
2021/10/05 01:38:49;;;;;;;8.25;1.45;;;;;;;10.28;84.54;101104.50;5056136;28;20425;-36
2021/10/05 01:41:15;;;;;;;4.87;1.33;;;;;;;10.25;84.69;101096.88;5056426;28;20020;-36
2021/10/05 01:43:40;;;;;;;3.20;1.20;;;;;;;10.28;84.50;101099.09;5055975;28;20473;-36
2021/10/05 01:46:11;;;;;;;3.13;1.27;;;;;;;10.32;84.83;101103.00;5056274;28;20582;-36
2021/10/05 01:48:37;;;;;;;5.60;1.38;;;;;;;10.22;84.88;101098.09;5054754;28;20039;-36
2021/10/05 01:51:03;;;;;;;3.63;1.15;;;;;;;10.19;85.03;101095.81;5055948;28;20398;-35
2021/10/05 01:53:28;;;;;;;4.55;0.98;;;;;;;10.22;85.02;101091.84;5056242;28;20112;-34
2021/10/05 01:55:54;;;;;;;5.30;1.43;;;;;;;10.14;84.86;101073.22;5055737;28;20029;-34
2021/10/05 01:58:19;;;;;;;4.27;1.40;;;;;;;10.22;84.49;101073.75;5056260;28;20415;-34
2021/10/05 02:00:44;;;;;;;5.97;1.93;;;;;;;10.26;85.40;101075.00;5054977;28;20025;-34
2021/10/05 02:03:12;;;;;;;3.80;1.73;;;;;;;10.23;85.20;101063.78;5055693;28;20024;-34
2021/10/05 02:05:40;;;;;;;4.85;1.38;;;;;;;10.23;84.90;101067.31;5054156;28;20333;-34
2021/10/05 02:08:06;;;;;;;5.70;1.63;;;;;;;10.21;85.22;101061.31;5055680;28;20108;-34
2021/10/05 02:10:31;;;;;;;5.30;1.52;;;;;;;10.29;84.58;101060.19;5055433;28;20066;-34
2021/10/05 02:12:57;;;;;;;4.70;1.60;;;;;;;10.22;85.18;101062.94;5055454;28;20024;-34
2021/10/05 02:15:22;;;;;;;3.37;0.97;;;;;;;10.20;85.71;101048.84;5055366;28;20260;-34
2021/10/05 02:17:47;;;;;;;2.90;1.13;;;;;;;10.17;85.13;101048.47;5055917;28;20021;-34
2021/10/05 02:20:13;;;;;;;2.20;1.20;;;;;;;10.14;85.93;101043.50;5055533;28;20029;-35
2021/10/05 02:22:38;;;;;;;3.83;1.10;;;;;;;10.15;85.19;101031.63;5055797;28;20103;-34
2021/10/05 02:25:05;;;;;;;6.05;1.20;;;;;;;10.16;85.46;101031.41;5054979;28;20037;-34
2021/10/05 02:27:30;;;;;;;3.15;1.30;;;;;;;10.09;85.73;101024.41;5054952;28;20115;-34
2021/10/05 02:29:56;;;;;;;4.13;1.13;;;;;;;10.11;85.82;101028.56;5055466;28;20096;-34
2021/10/05 02:32:21;;;;;;;2.27;1.13;;;;;;;10.18;86.28;101028.50;5055105;28;20028;-34
2021/10/05 02:34:47;;;;;;;4.28;1.23;;;;;;;10.20;85.78;101026.38;5055205;28;20446;-34
2021/10/05 02:37:12;;;;;;;6.10;2.00;;;;;;;10.14;85.78;101011.06;5054986;28;20025;-34
2021/10/05 02:39:38;;;;;;;4.80;1.10;;;;;;;10.20;86.03;101012.88;5055269;28;20364;-36
2021/10/05 02:42:04;;;;;;;2.83;1.20;;;;;;;10.24;86.26;101006.81;5054370;28;20403;-37
2021/10/05 02:44:30;;;;;;;3.35;0.90;;;;;;;10.25;86.26;101008.50;5054874;28;20028;-34
2021/10/05 02:46:55;;;;;;;3.60;1.05;;;;;;;10.24;86.04;100997.88;5054862;28;20021;-34
2021/10/05 02:49:21;;;;;;;4.37;1.40;;;;;;;10.24;85.54;100990.59;5054384;28;20071;-34
2021/10/05 02:51:46;;;;;;;5.47;1.37;;;;;;;10.23;85.82;100986.22;5053541;28;20064;-34
2021/10/05 02:54:11;;;;;;;3.70;1.77;;;;;;;10.34;85.80;100987.38;5054670;28;20056;-34
2021/10/05 02:56:37;;;;;;;4.87;1.47;;;;;;;10.37;85.95;100989.63;5055130;28;20445;-34
2021/10/05 02:59:02;;;;;;;4.60;1.33;;;;;;;10.33;86.11;100988.44;5053408;28;20047;-34
2021/10/05 03:01:28;;;;;;;4.83;1.23;;;;;;;10.32;85.88;100986.78;5054647;28;20071;-34
2021/10/05 03:03:53;;;;;;;3.13;1.50;;;;;;;10.25;86.18;100969.84;5054474;28;20378;-34
2021/10/05 03:06:18;;;;;;;1.73;1.00;;;;;;;10.30;85.99;100986.19;5054242;28;20035;-34
2021/10/05 03:08:44;;;;;;;1.85;0.85;;;;;;;10.29;86.51;100977.22;5054228;28;20116;-34
2021/10/05 03:11:10;;;;;;;2.67;1.30;;;;;;;10.27;86.21;100973.94;5054007;28;20028;-34
2021/10/05 03:13:36;;;;;;;3.88;1.27;;;;;;;10.22;85.93;100959.44;5054318;28;20275;-34
2021/10/05 03:16:03;;;;;;;2.08;0.90;;;;;;;10.23;86.05;100958.38;5053228;28;20025;-34
2021/10/05 03:18:29;;;;;;;3.00;1.40;;;;;;;10.17;87.15;100938.50;5054166;28;20037;-34
2021/10/05 03:20:54;;;;;;;4.57;1.25;;;;;;;10.20;86.27;100937.19;5054223;28;20369;-34
2021/10/05 03:23:20;;;;;;;4.93;1.07;;;;;;;10.25;86.25;100943.63;5054140;28;20365;-34
2021/10/05 03:25:45;;;;;;;1.30;0.90;;;;;;;10.16;86.41;100926.03;5054654;28;20371;-34
2021/10/05 03:28:10;;;;;;;2.83;1.10;;;;;;;10.19;86.54;100928.25;5054318;28;20025;-34
2021/10/05 03:30:36;;;;;;;3.60;1.00;;;;;;;10.17;86.26;100918.75;5054769;28;20368;-34
2021/10/05 03:33:01;;;;;;;3.93;1.40;;;;;;;10.22;86.50;100937.81;5054517;28;20020;-34
2021/10/05 03:35:27;;;;;;;4.13;1.20;;;;;;;10.21;86.36;100928.06;5053801;28;20551;-34
2021/10/05 03:37:52;;;;;;;3.93;1.17;;;;;;;10.17;86.85;100918.75;5053230;28;20457;-34
2021/10/05 03:40:18;;;;;;;4.38;1.17;;;;;;;10.18;87.06;100923.09;5053540;28;20314;-34
2021/10/05 03:42:43;;;;;;;3.97;1.58;;;;;;;10.17;86.92;100913.34;5053978;28;20032;-34
2021/10/05 03:45:09;;;;;;;2.63;1.10;;;;;;;10.10;86.68;100912.59;5053765;28;20051;-34
2021/10/05 03:47:36;;;;;;;5.97;2.10;;;;;;;10.13;86.98;100914.84;5053935;28;20075;-34
2021/10/05 03:50:06;;;;;;;3.80;1.20;;;;;;;9.98;87.09;100894.44;5053543;28;20024;-34
2021/10/05 03:52:32;;;;;;;5.57;1.30;;;;;;;10.04;87.03;100911.63;5053581;28;20021;-35
2021/10/05 03:54:57;;;;;;;3.07;1.00;;;;;;;10.00;87.09;100899.59;5052513;28;20067;-34
2021/10/05 03:57:22;;;;;;;2.35;1.02;;;;;;;9.92;87.14;100872.91;5053576;28;20256;-34
2021/10/05 03:59:48;;;;;;;2.63;1.03;;;;;;;10.05;87.24;100895.19;5053486;28;20028;-34
2021/10/05 04:02:13;;;;;;;4.43;1.20;;;;;;;9.97;87.20;100878.47;5053717;28;20275;-34
2021/10/05 04:04:39;;;;;;;2.57;1.10;;;;;;;10.06;87.33;100891.44;5053772;28;20108;-35
2021/10/05 04:07:04;;;;;;;2.38;1.17;;;;;;;10.03;87.37;100888.34;5053108;28;20321;-34
2021/10/05 04:09:30;;;;;;;4.07;1.55;;;;;;;10.07;87.09;100882.28;5053190;28;20071;-34
2021/10/05 04:11:55;;;;;;;5.23;1.30;;;;;;;10.01;87.52;100863.44;5053788;28;20079;-34
2021/10/05 04:14:20;;;;;;;3.43;1.10;;;;;;;10.02;87.76;100868.63;5053188;28;20415;-34
2021/10/05 04:16:46;;;;;;;4.63;1.27;;;;;;;10.01;87.81;100864.28;5053470;28;20052;-34
2021/10/05 04:19:11;;;;;;;1.97;1.23;;;;;;;10.03;87.51;100864.03;5053192;28;20024;-34
2021/10/05 04:21:36;;;;;;;2.07;0.90;;;;;;;9.98;87.81;100853.09;5053619;28;20093;-35
2021/10/05 04:24:02;;;;;;;1.80;1.20;;;;;;;9.95;87.85;100850.84;5052438;28;20020;-34
2021/10/05 04:26:27;;;;;;;2.50;1.05;;;;;;;9.98;88.09;100856.63;5053065;28;20021;-34
2021/10/05 04:28:53;;;;;;;3.80;1.13;;;;;;;9.86;87.70;100831.44;5053048;28;20096;-35
2021/10/05 04:31:18;;;;;;;2.67;1.30;;;;;;;9.89;87.52;100830.13;5053018;28;20085;-34
2021/10/05 04:33:43;;;;;;;3.93;1.20;;;;;;;9.98;87.61;100845.81;5052682;28;20028;-34
2021/10/05 04:36:09;;;;;;;5.57;1.50;;;;;;;9.92;87.67;100849.44;5053519;28;20027;-34
2021/10/05 04:38:34;;;;;;;2.90;1.00;;;;;;;9.90;87.94;100837.19;5053405;28;20033;-34
2021/10/05 04:40:59;;;;;;;2.07;1.10;;;;;;;9.92;87.81;100840.50;5053677;28;20100;-35
2021/10/05 04:43:25;;;;;;;5.83;1.37;;;;;;;9.91;88.27;100831.56;5052886;28;20465;-34
2021/10/05 04:45:50;;;;;;;3.97;1.00;;;;;;;9.94;87.61;100825.69;5052605;28;20393;-34
2021/10/05 04:48:15;;;;;;;1.87;1.00;;;;;;;9.83;88.02;100804.88;5053290;28;20025;-34
2021/10/05 04:50:41;;;;;;;2.77;1.20;;;;;;;9.88;87.81;100821.22;5053437;28;20027;-34
2021/10/05 04:53:06;;;;;;;2.30;0.90;;;;;;;9.94;88.60;100822.19;5053110;28;20021;-34
2021/10/05 04:55:32;;;;;;;2.67;1.10;;;;;;;9.87;87.63;100806.06;5052632;28;20273;-34
2021/10/05 04:58:00;;;;;;;2.58;1.00;;;;;;;9.94;88.06;100806.78;5052736;28;20025;-35
2021/10/05 05:00:26;;;;;;;2.83;0.70;;;;;;;9.92;88.09;100808.91;5052404;28;20064;-34
2021/10/05 05:02:51;;;;;;;3.13;1.00;;;;;;;9.93;88.39;100807.03;5052906;28;20048;-34
2021/10/05 05:05:16;;;;;;;4.43;1.30;;;;;;;9.95;88.15;100803.03;5052461;28;20025;-35
2021/10/05 05:07:43;;;;;;;3.03;1.33;;;;;;;9.99;88.54;100801.53;5052866;28;20013;-35
2021/10/05 05:10:08;;;;;;;;;;;;;;;10.03;87.58;100800.03;5053220;28;20074;-34
2021/10/05 05:12:34;;;;;;;8.05;1.23;;;;;;;9.90;87.82;100778.56;5052824;28;19904;-35
2021/10/05 05:15:00;;;;;;;3.33;1.20;;;;;;;10.01;87.94;100782.41;5052579;28;20023;-34
2021/10/05 05:17:25;;;;;;;;;;;;;;;10.11;87.65;100784.56;5053742;28;20056;-35
2021/10/05 05:19:51;;;;;;;2.95;1.00;;;;;;;10.08;88.34;100780.44;5052509;28;19948;-34
2021/10/05 05:22:16;;;;;;;1.83;1.00;;;;;;;10.11;87.80;100787.25;5052751;28;20353;-34
2021/10/05 05:24:41;;;;;;;1.97;0.80;;;;;;;10.16;87.73;100780.13;5052702;28;20103;-34
2021/10/05 05:27:07;;;;;;;3.90;1.20;;;;;;;10.13;87.75;100777.03;5052450;28;20025;-36
2021/10/05 05:29:32;;;;;;;3.97;1.03;;;;;;;10.25;87.34;100773.38;5052384;28;20021;-35
2021/10/05 05:31:58;;;;;;;2.45;0.93;;;;;;;10.31;87.05;100772.44;5052717;28;20021;-34
2021/10/05 05:34:24;;;;;;;6.72;1.67;;;;;;;10.36;86.50;100763.63;5054119;28;20513;-35
2021/10/05 05:36:50;;;;;;;5.03;0.95;;;;;;;10.37;87.56;100756.34;5056135;28;20061;-34
2021/10/05 05:39:16;;;;;;;4.72;1.10;;;;;;;10.41;87.19;100758.34;5055765;28;20114;-34
2021/10/05 05:41:45;;;;;;;6.25;1.30;;;;;;;10.34;86.91;100741.41;5055857;28;20481;-35
2021/10/05 05:44:11;;;;;;;3.65;1.13;;;;;;;10.32;86.71;100735.41;5055927;28;20048;-35
2021/10/05 05:46:36;;;;;;;;;;;;;;;10.44;86.53;100749.78;5056549;28;20029;-34
2021/10/05 05:49:02;;;;;;;2.45;1.10;;;;;;;10.36;86.83;100747.41;5055769;28;19974;-34
2021/10/05 05:51:27;;;;;;;3.08;1.25;;;;;;;10.36;86.94;100733.91;5055932;28;20476;-35
2021/10/05 05:53:52;;;;;;;2.60;1.10;;;;;;;10.32;86.63;100743.53;5054357;28;20114;-35
2021/10/05 05:56:18;;;;;;;2.47;1.17;;;;;;;10.27;87.02;100741.50;5055075;28;20028;-34
2021/10/05 05:58:43;;;;;;;4.80;1.23;;;;;;;10.26;87.23;100745.28;5055228;28;20866;-35
2021/10/05 06:01:08;;;;;;;3.47;1.33;;;;;;;10.20;86.96;100742.63;5055790;28;20535;-35
2021/10/05 06:03:34;;;;;;;2.93;1.70;;;;;;;10.03;87.24;100724.38;5055936;28;20027;-35
2021/10/05 06:05:59;;;;;;;3.23;1.67;;;;;;;10.01;87.40;100737.31;5055809;28;20060;-34
2021/10/05 06:08:25;;;;;;;4.13;1.70;;;;;;;10.00;87.83;100741.06;5055480;28;20116;-34
2021/10/05 06:10:50;;;;;;;2.05;1.63;;;;;;;9.97;88.09;100746.91;5055550;28;20107;-34
2021/10/05 06:13:15;;;;;;;5.67;2.33;;;;;;;9.92;88.47;100744.06;5055712;28;20428;-35
2021/10/05 06:15:41;;;;;;;5.70;2.13;;;;;;;9.93;88.49;100745.72;5056017;28;20675;-34
2021/10/05 06:18:06;;;;;;;3.47;1.60;;;;;;;9.90;88.44;100737.25;5055560;28;20468;-34
2021/10/05 06:20:32;;;;;;;4.60;1.80;;;;;;;9.87;88.46;100735.84;5055424;28;20025;-34
2021/10/05 06:22:58;;;;;;;6.57;2.05;;;;;;;9.80;88.47;100735.09;5055790;28;20700;-34
2021/10/05 06:25:26;;;;;;;4.03;2.03;;;;;;;9.69;88.69;100708.88;5055940;28;20045;-34
2021/10/05 06:27:54;;;;;;;5.10;1.80;;;;;;;9.78;88.49;100723.72;5055517;28;20056;-34
2021/10/05 06:30:19;;;;;;;3.80;2.03;;;;;;;9.74;88.51;100725.22;5055810;28;20021;-34
2021/10/05 06:32:50;;;;;;;4.95;2.03;;;;;;;9.74;89.04;100731.44;5055224;28;20416;-34
2021/10/05 06:35:16;;;;;;;6.20;1.77;;;;;;;9.79;89.04;100719.94;5054826;28;20454;-34
2021/10/05 06:37:41;;;;;;;3.70;2.05;;;;;;;9.77;89.00;100708.56;5055550;28;20029;-34
2021/10/05 06:40:07;;;;;;;3.40;1.73;;;;;;;9.74;88.63;100703.59;5055484;28;20078;-35
2021/10/05 06:42:35;;;;;;;;;;;;;;;9.86;88.34;100706.34;5054032;28;20027;-35
2021/10/05 06:45:06;;;;;;;4.90;1.92;;;;;;;9.79;88.91;100703.75;5054420;28;20011;-35
2021/10/05 06:47:32;;;;;;;3.75;2.15;;;;;;;9.83;89.27;100710.34;5054419;28;20029;-35
2021/10/05 06:49:58;;;;;;;4.70;1.98;;;;;;;9.85;89.16;100710.09;5054804;28;20464;-35
2021/10/05 06:52:24;;;;;;;4.05;2.22;;;;;;;9.92;88.85;100705.44;5054728;28;20052;-34
2021/10/05 06:54:50;;;;;;;6.20;2.58;;;;;;;9.99;88.72;100709.69;5054626;28;20029;-35
2021/10/05 06:57:15;;;;;;;5.60;2.10;;;;;;;10.00;88.32;100697.84;5055100;28;20032;-34
2021/10/05 06:59:40;;;;;;;2.93;1.80;;;;;;;10.09;88.28;100700.19;5054791;28;20119;-35
2021/10/05 07:02:06;;;;;;;7.37;1.90;;;;;;;10.13;88.30;100701.38;5054643;28;20287;-34
2021/10/05 07:04:32;;;;;;;5.10;2.10;;;;;;;10.18;87.94;100710.44;5054718;28;20469;-35
2021/10/05 07:06:58;;;;;;;8.18;1.90;;;;;;;10.27;87.62;100700.16;5054993;28;20024;-34
2021/10/05 07:09:23;;;;;;;3.40;1.90;;;;;;;10.34;87.52;100691.94;5054012;28;20021;-35
2021/10/05 07:11:48;;;;;;;2.80;1.93;;;;;;;10.30;87.61;100686.19;5054431;28;20592;-35
2021/10/05 07:14:14;;;;;;;4.20;1.90;;;;;;;10.37;86.78;100673.38;5054520;28;20028;-35
2021/10/05 07:16:39;;;;;;;6.80;2.40;;;;;;;10.45;86.47;100681.16;5054758;28;20021;-35
2021/10/05 07:19:05;;;;;;;3.30;1.90;;;;;;;10.50;87.13;100675.03;5054252;28;20057;-35
2021/10/05 07:21:30;;;;;;;4.87;1.90;;;;;;;10.54;86.86;100677.03;5052920;28;20041;-35
2021/10/05 07:23:55;;;;;;;4.00;2.00;;;;;;;10.60;86.44;100669.88;5054277;28;20095;-35
2021/10/05 07:26:21;;;;;;;4.97;2.10;;;;;;;10.67;86.42;100670.56;5054202;28;20048;-35
2021/10/05 07:28:46;;;;;;;3.30;1.77;;;;;;;10.71;86.23;100660.09;5053718;28;20024;-35
2021/10/05 07:31:13;;;;;;;6.53;2.20;;;;;;;10.79;85.19;100667.88;5053963;28;20025;-35
2021/10/05 07:33:38;;;;;;;;;;;;;;;10.91;85.83;100660.53;5054640;28;20260;-35
2021/10/05 07:36:03;;;;;;;3.95;1.90;;;;;;;10.94;85.55;100651.13;5054177;28;19959;-35
2021/10/05 07:38:29;;;;;;;4.80;1.83;;;;;;;10.99;85.46;100646.66;5052387;28;20358;-35
2021/10/05 07:40:54;;;;;;;3.00;1.90;;;;;;;11.07;85.80;100642.75;5053592;28;20083;-35
2021/10/05 07:43:20;;;;;;;4.90;1.87;;;;;;;11.12;84.68;100633.91;5054524;28;20021;-35
2021/10/05 07:45:47;;;;;;;4.13;2.17;;;;;;;11.17;85.10;100629.41;5054560;28;20255;-39
2021/10/05 07:48:12;;;;;;;3.00;1.73;;;;;;;11.25;84.65;100633.63;5054429;28;20102;-35
2021/10/05 07:50:38;;;;;;;3.13;1.95;;;;;;;11.29;84.94;100630.22;5053649;28;20409;-35
2021/10/05 07:53:04;;;;;;;7.80;2.20;;;;;;;11.35;83.88;100623.00;5053646;28;20052;-35
2021/10/05 07:55:30;;;;;;;5.97;2.53;;;;;;;11.42;83.58;100618.28;5053520;28;20442;-35
2021/10/05 07:57:56;;;;;;;6.97;1.90;;;;;;;11.45;83.59;100612.38;5053066;28;20416;-35
2021/10/05 08:00:22;;;;;;;7.45;2.45;;;;;;;11.55;83.98;100612.56;5053177;28;20104;-35
2021/10/05 08:02:47;;;;;;;4.72;2.05;;;;;;;11.63;83.48;100602.41;5054198;28;20033;-35
2021/10/05 08:05:15;;;;;;;3.33;1.83;;;;;;;11.71;84.43;100597.41;5053934;28;20104;-35
2021/10/05 08:07:44;;;;;;;6.35;2.22;;;;;;;11.79;83.07;100594.28;5053489;28;20025;-35
2021/10/05 08:10:10;;;;;;;5.45;2.08;;;;;;;11.88;82.94;100586.63;5052083;28;20017;-35
2021/10/05 08:12:35;;;;;;;4.35;1.95;;;;;;;11.92;82.28;100576.94;5053888;28;20357;-35
2021/10/05 08:15:00;;;;;;;5.15;2.25;;;;;;;11.99;82.03;100585.72;5053206;28;20134;-35
2021/10/05 08:17:26;;;;;;;3.83;1.80;;;;;;;12.09;82.57;100580.44;5053568;28;20044;-35
2021/10/05 08:19:51;;;;;;;4.93;2.30;;;;;;;12.17;82.81;100564.84;5053417;28;20063;-35
2021/10/05 08:22:17;;;;;;;3.42;1.65;;;;;;;12.24;80.97;100570.91;5052139;28;20032;-35
2021/10/05 08:24:43;;;;;;;7.75;2.05;;;;;;;12.30;80.59;100572.66;5053342;28;20052;-42
2021/10/05 08:27:09;;;;;;;4.32;1.77;;;;;;;12.36;81.01;100568.94;5053628;28;20047;-35
2021/10/05 08:29:37;;;;;;;5.47;1.80;;;;;;;12.44;81.19;100562.25;5053380;28;20036;-35
2021/10/05 08:32:04;;;;;;;3.50;1.50;;;;;;;12.51;80.49;100552.06;5051656;28;20047;-35
2021/10/05 08:34:30;;;;;;;2.92;1.80;;;;;;;12.60;80.62;100550.56;5051976;28;20448;-35
2021/10/05 08:36:55;;;;;;;6.03;1.58;;;;;;;12.70;80.26;100539.81;5053048;28;20029;-35
2021/10/05 08:39:21;;;;;;;4.77;2.03;;;;;;;12.78;80.40;100539.38;5052046;28;20036;-35
2021/10/05 08:41:47;;;;;;;7.43;2.10;;;;;;;12.88;80.65;100541.38;5053527;28;20013;-35
2021/10/05 08:44:13;;;;;;;4.57;1.80;;;;;;;12.96;80.02;100542.84;5052921;28;20271;-35
2021/10/05 08:46:39;;;;;;;4.93;2.00;;;;;;;13.04;80.45;100536.97;5053509;28;20032;-35
2021/10/05 08:49:05;;;;;;;4.55;1.75;;;;;;;13.11;79.76;100521.28;5053243;28;20017;-35
2021/10/05 08:51:31;;;;;;;4.75;2.10;;;;;;;13.19;80.62;100509.97;5053713;28;20036;-35
2021/10/05 08:53:57;;;;;;;5.65;1.92;;;;;;;13.30;80.61;100519.06;5052875;28;20119;-35
2021/10/05 08:56:22;;;;;;;6.00;1.80;;;;;;;13.40;79.42;100500.16;5052826;28;20040;-35
2021/10/05 08:58:47;;;;;;;5.33;1.93;;;;;;;13.50;79.41;100494.81;5053026;28;20050;-35
2021/10/05 09:01:15;;;;;;;5.43;1.80;;;;;;;13.44;78.04;100471.41;5053279;28;20262;-35
2021/10/05 09:03:54;;;;;;;4.10;1.60;;;;;;;13.71;78.60;100484.09;5053250;28;20301;-35
2021/10/05 09:06:23;;;;;;;5.38;1.70;;;;;;;13.72;77.71;100466.75;5052971;28;20021;-35
2021/10/05 09:08:49;;;;;;;5.25;1.70;;;;;;;13.89;78.33;100472.81;5053436;28;20438;-35
2021/10/05 09:11:18;;;;;;;6.72;1.63;;;;;;;13.83;78.05;100441.25;5056708;28;20342;-35
2021/10/05 09:14:04;;;;;;;4.25;1.75;;;;;;;14.10;77.49;100473.75;5056227;28;20518;-35
2021/10/05 09:16:31;;;;;;;4.07;1.80;;;;;;;14.22;77.10;100476.28;5056030;28;20052;-35
2021/10/05 09:19:11;;;;;;;3.58;1.27;;;;;;;14.25;76.86;100454.81;5056425;28;20025;-35
2021/10/05 09:21:40;;;;;;;6.57;1.80;;;;;;;14.38;77.10;100453.50;5057311;28;20100;-35
2021/10/05 09:24:12;;;;;;;7.45;1.50;;;;;;;14.56;75.84;100460.41;5056480;28;20028;-35
2021/10/05 09:26:52;;;;;;;8.52;1.50;;;;;;;14.67;74.23;100454.72;5056605;28;20025;-35
2021/10/05 09:29:26;;;;;;;5.00;1.67;;;;;;;14.84;75.36;100451.81;5055960;28;20047;-35
2021/10/05 09:31:55;;;;;;;4.00;1.50;;;;;;;14.94;73.85;100445.56;5056188;28;20060;-35
2021/10/05 09:34:35;;;;;;;6.28;1.13;;;;;;;15.05;74.52;100439.03;5056110;28;20024;-35
2021/10/05 09:37:28;;;;;;;6.82;1.40;;;;;;;15.18;73.25;100434.97;5055523;28;20445;-35
2021/10/05 09:39:59;;;;;;;3.97;1.42;;;;;;;15.20;73.04;100425.44;5053827;28;20048;-35
2021/10/05 09:42:36;;;;;;;3.72;1.30;;;;;;;15.34;72.33;100427.63;5053790;28;20075;-35
2021/10/05 09:45:10;;;;;;;3.55;1.35;;;;;;;15.33;71.78;100409.66;5053760;28;20043;-35
2021/10/05 09:47:54;;;;;;;5.95;1.10;;;;;;;15.43;71.79;100410.44;5053662;28;20025;-35
2021/10/05 09:50:28;;;;;;;6.72;1.52;;;;;;;15.59;70.88;100404.97;5037111;28;20473;-35
2021/10/05 09:52:54;;;;;;;2.83;1.20;;;;;;;15.72;72.65;100404.44;5053719;28;20048;-35
2021/10/05 09:55:22;;;;;;;4.03;1.03;;;;;;;15.82;70.14;100407.16;5053358;28;20044;-35
2021/10/05 09:57:48;;;;;;;3.55;1.10;;;;;;;15.87;70.15;100411.78;5053521;28;20485;-35
2021/10/05 10:00:15;;;;;;;3.47;1.00;;;;;;;15.91;69.10;100400.03;5053207;28;20402;-35
2021/10/05 10:02:42;;;;;;;4.10;1.02;;;;;;;15.97;69.04;100392.66;5053949;28;20465;-35
2021/10/05 10:05:16;;;;;;;4.95;1.10;;;;;;;15.97;69.69;100384.47;5053845;28;20091;-35
2021/10/05 10:07:46;;;;;;;4.55;1.50;;;;;;;16.05;68.92;100386.59;5053763;28;20029;-35
2021/10/05 10:10:15;;;;;;;2.95;1.20;;;;;;;16.10;69.58;100380.31;5053148;28;20048;-35
2021/10/05 10:13:22;;;;;;;3.10;0.90;;;;;;;16.39;68.79;100394.09;5053384;28;20400;-35
2021/10/05 10:15:48;;;;;;;5.05;1.00;;;;;;;16.40;66.79;100401.22;4976070;28;20039;-35
2021/10/05 10:18:16;;;;;;;4.13;0.80;;;;;;;16.51;66.85;100401.97;4993989;28;20113;-35
2021/10/05 10:20:44;;;;;;;4.32;0.93;;;;;;;16.58;68.51;100397.81;4992737;28;20502;-35
2021/10/05 10:23:20;;;;;;;4.25;1.30;;;;;;;16.68;67.44;100405.16;4994168;28;20038;-35
2021/10/05 10:26:19;;;;;;;5.28;1.30;;;;;;;16.65;67.14;100400.25;4993940;28;20146;-35
2021/10/05 10:28:46;;;;;;;6.40;1.08;;;;;;;16.54;65.39;100396.75;4993243;28;20522;-35
2021/10/05 10:31:30;;;;;;;5.50;1.02;;;;;;;16.59;65.69;100398.66;4993861;28;20053;-36
2021/10/05 10:33:56;;;;;;;5.30;1.13;;;;;;;16.51;66.70;100412.91;4993817;28;20407;-35
2021/10/05 10:36:30;;;;;;;2.53;0.73;;;;;;;16.42;66.65;100397.09;4993442;28;20026;-35
2021/10/05 10:39:24;;;;;;;2.70;0.90;;;;;;;16.36;66.61;100397.41;4993803;28;20042;-35
2021/10/05 10:41:52;;;;;;;2.83;1.00;;;;;;;16.42;66.95;100378.00;4975958;28;20041;-35
2021/10/05 10:44:20;;;;;;;2.58;0.88;;;;;;;16.52;67.03;100393.50;4993670;28;20122;-35
2021/10/05 10:46:46;;;;;;;7.82;1.38;;;;;;;16.37;66.06;100379.94;4993460;28;20030;-35
2021/10/05 10:49:19;;;;;;;2.65;0.90;;;;;;;16.35;66.92;100393.06;4993091;28;20374;-35
2021/10/05 10:51:48;;;;;;;6.13;0.90;;;;;;;16.31;66.80;100383.81;5005220;28;20041;-35
2021/10/05 10:54:16;;;;;;;3.35;0.95;;;;;;;16.25;66.49;100387.63;5054744;28;20013;-35
2021/10/05 10:56:43;;;;;;;2.75;0.90;;;;;;;16.11;66.73;100365.63;5055025;28;20025;-35
2021/10/05 10:59:12;;;;;;;3.15;0.88;;;;;;;16.09;67.19;100384.97;5054608;28;20031;-35
2021/10/05 11:01:47;;;;;;;2.00;0.70;;;;;;;15.95;68.32;100373.81;5054893;28;20086;-35
2021/10/05 11:04:15;;;;;;;2.70;0.90;;;;;;;16.05;68.36;100377.63;5054837;28;20088;-35
2021/10/05 11:06:49;;;;;;;2.55;0.77;;;;;;;16.03;68.51;100368.91;5054690;28;20031;-35
2021/10/05 11:09:15;;;;;;;3.38;0.70;;;;;;;16.03;67.60;100358.81;5054877;28;20060;-35
2021/10/05 11:11:43;;;;;;;4.20;1.00;;;;;;;16.05;68.03;100364.78;5054652;28;20049;-35
2021/10/05 11:14:13;;;;;;;4.35;0.90;;;;;;;15.91;67.88;100341.97;5054633;28;20063;-35
2021/10/05 11:16:41;;;;;;;2.00;0.73;;;;;;;16.01;68.85;100369.19;5054329;28;20094;-35
2021/10/05 11:19:16;;;;;;;2.22;0.80;;;;;;;15.85;70.39;100346.59;5054221;28;20025;-35
2021/10/05 11:21:48;;;;;;;4.68;1.02;;;;;;;15.88;68.93;100346.06;5054945;28;20020;-35
2021/10/05 11:24:16;;;;;;;2.30;0.70;;;;;;;15.87;68.61;100349.88;5054132;28;20049;-36
2021/10/05 11:26:43;;;;;;;3.65;1.00;;;;;;;15.87;67.82;100349.88;5054128;28;20037;-35